Time;durP1;ratioP1;P1;durP2;ratioP2;P2;SDS_P1;SDS_P2;PMS_P1;PMS_P2;Temp;Humidity;BMP_temperature;BMP_pressure;BME280_temperature;BME280_humidity;BME280_pressure;Samples;Min_cycle;Max_cycle;Signal;HPM_P1;HPM_P2
2022/07/11 00:01:41;;;;;;;3.50;3.20;;;;;;;;;;5054993;28;20181;-52
2022/07/11 00:04:08;;;;;;;4.67;2.40;;;;;;;;;;5056359;28;20729;-51
2022/07/11 00:06:34;;;;;;;3.03;2.57;;;;;;;;;;5044301;28;20277;-52
2022/07/11 00:09:00;;;;;;;3.53;2.83;;;;;;;;;;5062208;28;20185;-51
2022/07/11 00:11:26;;;;;;;2.80;2.50;;;;;;;;;;5056274;28;20200;-52
2022/07/11 00:13:52;;;;;;;3.03;2.80;;;;;;;;;;5039337;28;20560;-51
2022/07/11 00:16:18;;;;;;;2.97;2.70;;;;;;;;;;5044816;28;20188;-52
2022/07/11 00:18:45;;;;;;;3.13;2.83;;;;;;;;;;5063604;28;20207;-51
2022/07/11 00:21:12;;;;;;;2.90;2.70;;;;;;;;;;5046807;28;20481;-54
2022/07/11 00:23:38;;;;;;;2.77;2.50;;;;;;;;;;5038420;28;20199;-51
2022/07/11 00:26:05;;;;;;;2.83;2.63;;;;;;;;;;5038617;28;20177;-51
2022/07/11 00:28:31;;;;;;;7.40;3.07;;;;;;;;;;5057323;28;20200;-51
2022/07/11 00:30:57;;;;;;;3.10;2.80;;;;;;;;;;5062208;28;20264;-52
2022/07/11 00:33:24;;;;;;;3.03;2.70;;;;;;;;;;5064643;28;20185;-52
2022/07/11 00:35:50;;;;;;;2.73;2.53;;;;;;;;;;5039787;28;20185;-52
2022/07/11 00:38:16;;;;;;;3.70;3.10;;;;;;;;;;5058262;28;20223;-51
2022/07/11 00:40:42;;;;;;;3.83;3.03;;;;;;;;;;5058908;27;20299;-50
2022/07/11 00:43:09;;;;;;;3.60;2.70;;;;;;;;;;5037705;28;20563;-51
2022/07/11 00:45:44;;;;;;;4.27;3.27;;;;;;;;;;5043293;28;20232;-51
2022/07/11 00:48:10;;;;;;;2.93;2.73;;;;;;;;;;5066302;28;20207;-51
2022/07/11 00:50:37;;;;;;;3.13;2.83;;;;;;;;;;5065912;28;20213;-51
2022/07/11 00:53:03;;;;;;;3.07;2.77;;;;;;;;;;5063489;28;20202;-51
2022/07/11 00:55:29;;;;;;;4.37;2.67;;;;;;;;;;5048330;28;20686;-51
2022/07/11 00:57:55;;;;;;;4.70;3.50;;;;;;;;;;5063649;28;20181;-51
2022/07/11 01:00:21;;;;;;;3.53;2.87;;;;;;;;;;5062127;28;20528;-51
2022/07/11 01:02:48;;;;;;;3.17;2.80;;;;;;;;;;5048623;28;20187;-52
2022/07/11 01:05:14;;;;;;;4.40;3.40;;;;;;;;;;5042290;28;20184;-52
2022/07/11 01:07:41;;;;;;;2.73;2.53;;;;;;;;;;5066434;28;20289;-58
2022/07/11 01:10:07;;;;;;;3.83;3.20;;;;;;;;;;5067072;28;20184;-51
2022/07/11 01:12:33;;;;;;;3.43;2.70;;;;;;;;;;5039605;28;20277;-52
2022/07/11 01:15:02;;;;;;;3.60;2.60;;;;;;;;;;5061908;28;20173;-51
2022/07/11 01:17:30;;;;;;;2.90;2.67;;;;;;;;;;5065213;28;20190;-53
2022/07/11 01:19:56;;;;;;;2.70;2.50;;;;;;;;;;5049657;28;20173;-51
2022/07/11 01:22:24;;;;;;;4.07;2.60;;;;;;;;;;5057070;28;20272;-51
2022/07/11 01:24:50;;;;;;;4.23;2.77;;;;;;;;;;5062704;28;20187;-52
2022/07/11 01:27:17;;;;;;;2.73;2.53;;;;;;;;;;5040990;28;20227;-50
2022/07/11 01:29:43;;;;;;;2.63;2.30;;;;;;;;;;5053831;28;20177;-52
2022/07/11 01:32:09;;;;;;;2.40;2.20;;;;;;;;;;5055954;28;20653;-52
2022/07/11 01:34:35;;;;;;;3.20;2.57;;;;;;;;;;5040289;28;20271;-52
2022/07/11 01:37:02;;;;;;;2.80;2.53;;;;;;;;;;5042295;28;20527;-52
2022/07/11 01:39:29;;;;;;;5.40;3.00;;;;;;;;;;5063190;28;20184;-50
2022/07/11 01:41:57;;;;;;;2.80;2.60;;;;;;;;;;5066153;28;20710;-51
2022/07/11 01:44:24;;;;;;;2.33;2.20;;;;;;;;;;5045251;28;20184;-52
2022/07/11 01:46:50;;;;;;;2.50;2.30;;;;;;;;;;5045388;28;20314;-51
2022/07/11 01:49:20;;;;;;;2.13;2.03;;;;;;;;;;5063537;28;20738;-52
2022/07/11 01:51:46;;;;;;;2.60;2.40;;;;;;;;;;5052957;28;20490;-51
2022/07/11 01:54:12;;;;;;;3.03;2.37;;;;;;;;;;5049650;28;20344;-54
2022/07/11 01:56:39;;;;;;;3.27;2.63;;;;;;;;;;5037177;28;20652;-50
2022/07/11 01:59:05;;;;;;;3.37;3.07;;;;;;;;;;5039898;28;20597;-52
2022/07/11 02:01:31;;;;;;;3.03;2.60;;;;;;;;;;5060692;28;20191;-50
2022/07/11 02:03:58;;;;;;;3.07;2.57;;;;;;;;;;5062464;28;20190;-51
2022/07/11 02:06:24;;;;;;;2.90;2.57;;;;;;;;;;5063403;28;20212;-52
2022/07/11 02:08:50;;;;;;;3.37;2.53;;;;;;;;;;5044999;28;20243;-50
2022/07/11 02:11:16;;;;;;;5.50;2.57;;;;;;;;;;5063311;28;20480;-51
2022/07/11 02:13:43;;;;;;;2.90;2.53;;;;;;;;;;5058419;28;20297;-50
2022/07/11 02:16:09;;;;;;;3.33;2.37;;;;;;;;;;5061749;28;20180;-51
2022/07/11 02:18:35;;;;;;;3.20;2.90;;;;;;;;;;5064834;28;20181;-51
2022/07/11 02:21:02;;;;;;;3.27;2.20;;;;;;;;;;5038663;28;20733;-51
2022/07/11 02:23:28;;;;;;;4.17;2.63;;;;;;;;;;5041171;28;20342;-51
2022/07/11 02:25:57;;;;;;;2.57;2.23;;;;;;;;;;5061398;28;20463;-51
2022/07/11 02:28:24;;;;;;;2.70;2.23;;;;;;;;;;5024315;28;20247;-51
2022/07/11 02:30:50;;;;;;;2.90;2.30;;;;;;;;;;5044873;28;20234;-51
2022/07/11 02:33:16;;;;;;;3.03;2.73;;;;;;;;;;5065981;28;20172;-51
2022/07/11 02:35:43;;;;;;;3.37;2.30;;;;;;;;;;5064485;28;20179;-53
2022/07/11 02:38:10;;;;;;;3.00;2.80;;;;;;;;;;5043583;28;20185;-51
2022/07/11 02:40:37;;;;;;;2.80;2.60;;;;;;;;;;5044097;28;20192;-52
2022/07/11 02:43:03;;;;;;;3.60;2.60;;;;;;;;;;5043891;28;20249;-51
2022/07/11 02:45:29;;;;;;;3.70;2.60;;;;;;;;;;5061170;28;20184;-51
2022/07/11 02:47:56;;;;;;;2.93;2.70;;;;;;;;;;5060550;28;20204;-51
2022/07/11 02:50:23;;;;;;;3.70;2.50;;;;;;;;;;5043060;28;20185;-51
2022/07/11 02:52:52;;;;;;;3.80;2.90;;;;;;;;;;5038949;28;20289;-52
2022/07/11 02:55:18;;;;;;;2.93;2.37;;;;;;;;;;5041281;28;20424;-51
2022/07/11 02:57:45;;;;;;;3.17;2.60;;;;;;;;;;5060646;28;20218;-54
2022/07/11 03:00:13;;;;;;;3.23;2.97;;;;;;;;;;5038176;28;20196;-51
2022/07/11 03:02:39;;;;;;;2.60;2.40;;;;;;;;;;5042386;28;20640;-52
2022/07/11 03:05:06;;;;;;;4.27;2.90;;;;;;;;;;5048649;28;20191;-52
2022/07/11 03:07:33;;;;;;;5.00;3.20;;;;;;;;;;5067764;28;20576;-52
2022/07/11 03:09:59;;;;;;;3.10;2.80;;;;;;;;;;5043095;28;20205;-52
2022/07/11 03:12:25;;;;;;;3.27;2.97;;;;;;;;;;5048500;28;20172;-52
2022/07/11 03:14:52;;;;;;;2.80;2.50;;;;;;;;;;5047872;28;20188;-51
2022/07/11 03:17:18;;;;;;;3.73;3.37;;;;;;;;;;5068390;28;20285;-53
2022/07/11 03:19:44;;;;;;;3.93;2.40;;;;;;;;;;5062448;28;20179;-52
2022/07/11 03:22:11;;;;;;;4.17;3.07;;;;;;;;;;5037863;28;20185;-52
2022/07/11 03:24:37;;;;;;;2.90;2.70;;;;;;;;;;5068059;28;20927;-51
2022/07/11 03:27:04;;;;;;;3.30;2.80;;;;;;;;;;5048694;28;20204;-50
2022/07/11 03:29:30;;;;;;;4.03;3.73;;;;;;;;;;5067669;28;20172;-51
2022/07/11 03:31:57;;;;;;;5.77;5.27;;;;;;;;;;5041950;28;20184;-51
2022/07/11 03:34:23;;;;;;;3.60;2.53;;;;;;;;;;5069848;28;20177;-50
2022/07/11 03:36:49;;;;;;;4.93;3.60;;;;;;;;;;5062196;28;20227;-51
2022/07/11 03:39:15;;;;;;;4.00;2.77;;;;;;;;;;5064388;28;20184;-51
2022/07/11 03:41:47;;;;;;;3.17;2.87;;;;;;;;;;5057383;28;20224;-51
2022/07/11 03:44:13;;;;;;;2.80;2.60;;;;;;;;;;5047875;28;20178;-50
2022/07/11 03:46:39;;;;;;;2.40;2.20;;;;;;;;;;5045251;28;20758;-50
2022/07/11 03:49:06;;;;;;;3.00;2.70;;;;;;;;;;5045804;28;20636;-51
2022/07/11 03:51:32;;;;;;;2.67;2.47;;;;;;;;;;5041796;28;20232;-51
2022/07/11 03:53:58;;;;;;;4.10;2.77;;;;;;;;;;5047599;28;20619;-51
2022/07/11 03:56:24;;;;;;;3.17;2.20;;;;;;;;;;5045290;28;20235;-50
2022/07/11 03:58:51;;;;;;;3.07;2.83;;;;;;;;;;5026771;28;20683;-50
2022/07/11 04:01:18;;;;;;;4.60;4.30;;;;;;;;;;5022216;28;20188;-50
2022/07/11 04:03:45;;;;;;;2.87;2.60;;;;;;;;;;5027892;28;20809;-50
2022/07/11 04:06:11;;;;;;;4.80;2.43;;;;;;;;;;5027737;28;20181;-50
2022/07/11 04:08:37;;;;;;;2.50;2.30;;;;;;;;;;5042102;28;20250;-50
2022/07/11 04:11:03;;;;;;;2.83;2.50;;;;;;;;;;5041871;28;20190;-55
2022/07/11 04:13:30;;;;;;;2.30;2.20;;;;;;;;;;5047768;28;20221;-50
2022/07/11 04:15:57;;;;;;;2.60;2.20;;;;;;;;;;5024991;28;20186;-52
2022/07/11 04:18:23;;;;;;;2.23;2.10;;;;;;;;;;5035803;28;20228;-50
2022/07/11 04:20:49;;;;;;;2.00;1.90;;;;;;;;;;5040236;28;20191;-51
2022/07/11 04:23:16;;;;;;;3.93;3.70;;;;;;;;;;5037028;28;20255;-51
2022/07/11 04:25:42;;;;;;;2.03;1.93;;;;;;;;;;5047336;28;20291;-50
2022/07/11 04:28:08;;;;;;;1.90;1.80;;;;;;;;;;5035965;28;20603;-51
2022/07/11 04:30:34;;;;;;;2.60;2.40;;;;;;;;;;5040052;28;20181;-50
2022/07/11 04:33:01;;;;;;;2.20;2.10;;;;;;;;;;5043581;28;20184;-51
2022/07/11 04:35:27;;;;;;;3.00;2.80;;;;;;;;;;5043088;28;20194;-51
2022/07/11 04:37:54;;;;;;;2.00;1.90;;;;;;;;;;5026827;28;20192;-51
2022/07/11 04:40:23;;;;;;;2.30;2.10;;;;;;;;;;5019749;28;20185;-50
2022/07/11 04:42:53;;;;;;;2.47;2.20;;;;;;;;;;5024632;28;20251;-50
2022/07/11 04:45:19;;;;;;;1.80;1.70;;;;;;;;;;5024896;28;20196;-52
2022/07/11 04:47:46;;;;;;;2.20;2.00;;;;;;;;;;5013527;28;20217;-51
2022/07/11 04:50:12;;;;;;;2.20;2.00;;;;;;;;;;5030343;28;20412;-52
2022/07/11 04:52:38;;;;;;;3.70;3.50;;;;;;;;;;5047318;28;20668;-51
2022/07/11 04:55:05;;;;;;;1.80;1.70;;;;;;;;;;5047781;28;20166;-51
2022/07/11 04:57:31;;;;;;;2.20;2.00;;;;;;;;;;5018712;28;20182;-54
2022/07/11 04:59:58;;;;;;;2.43;2.23;;;;;;;;;;5029585;28;20640;-52
2022/07/11 05:02:24;;;;;;;2.30;2.20;;;;;;;;;;5027325;28;20280;-52
2022/07/11 05:04:51;;;;;;;2.43;2.23;;;;;;;;;;5028419;28;20186;-50
2022/07/11 05:07:17;;;;;;;2.30;2.10;;;;;;;;;;5026080;28;20663;-50
2022/07/11 05:09:44;;;;;;;2.60;2.40;;;;;;;;;;5045937;28;20632;-54
2022/07/11 05:12:10;;;;;;;1.90;1.80;;;;;;;;;;5030287;28;20647;-50
2022/07/11 05:14:36;;;;;;;2.10;2.00;;;;;;;;;;5015361;28;20190;-51
2022/07/11 05:17:03;;;;;;;2.13;2.03;;;;;;;;;;5042881;28;20257;-51
2022/07/11 05:19:29;;;;;;;2.10;1.90;;;;;;;;;;5028738;28;20189;-52
2022/07/11 05:21:55;;;;;;;2.23;2.03;;;;;;;;;;5013146;28;20194;-52
2022/07/11 05:24:22;;;;;;;2.20;2.00;;;;;;;;;;5037741;28;20208;-51
2022/07/11 05:26:48;;;;;;;2.47;2.27;;;;;;;;;;5046864;28;20197;-51
2022/07/11 05:29:14;;;;;;;2.20;2.00;;;;;;;;;;5045895;28;20212;-51
2022/07/11 05:31:52;;;;;;;1.97;1.83;;;;;;;;;;5046201;28;20337;-51
2022/07/11 05:34:25;;;;;;;2.20;2.00;;;;;;;;;;5029405;28;20182;-51
2022/07/11 05:36:53;;;;;;;2.00;1.90;;;;;;;;;;5037460;28;20193;-50
2022/07/11 05:39:19;;;;;;;2.03;1.93;;;;;;;;;;5026767;28;20612;-51
2022/07/11 05:41:53;;;;;;;3.03;2.80;;;;;;;;;;5027592;28;20316;-51
2022/07/11 05:44:19;;;;;;;2.43;2.23;;;;;;;;;;5018266;28;20188;-52
2022/07/11 05:46:46;;;;;;;2.23;2.10;;;;;;;;;;5026667;28;20237;-51
2022/07/11 05:49:15;;;;;;;1.90;1.80;;;;;;;;;;5025859;28;20635;-54
2022/07/11 05:51:41;;;;;;;3.60;2.00;;;;;;;;;;5045770;28;20274;-51
2022/07/11 05:54:07;;;;;;;1.90;1.80;;;;;;;;;;5040364;28;20182;-51
2022/07/11 05:56:33;;;;;;;1.90;1.80;;;;;;;;;;5036857;28;20409;-51
2022/07/11 05:58:59;;;;;;;2.60;2.40;;;;;;;;;;5045875;28;20228;-51
2022/07/11 06:01:26;;;;;;;2.60;2.50;;;;;;;;;;5045612;28;20185;-52
2022/07/11 06:03:52;;;;;;;2.37;2.27;;;;;;;;;;5028412;28;20574;-51
2022/07/11 06:06:19;;;;;;;1.93;1.83;;;;;;;;;;5045313;28;20640;-51
2022/07/11 06:08:45;;;;;;;1.77;1.67;;;;;;;;;;5011209;28;20670;-52
2022/07/11 06:11:15;;;;;;;2.93;2.33;;;;;;;;;;5021414;28;20264;-50
2022/07/11 06:13:44;;;;;;;2.37;2.27;;;;;;;;;;5009879;28;20187;-50
2022/07/11 06:16:14;;;;;;;2.57;2.20;;;;;;;;;;5015893;28;20269;-52
2022/07/11 06:18:41;;;;;;;1.83;1.73;;;;;;;;;;5020807;28;20165;-51
2022/07/11 06:21:07;;;;;;;2.17;2.07;;;;;;;;;;5045857;28;20185;-51
2022/07/11 06:23:36;;;;;;;2.43;2.23;;;;;;;;;;5028096;28;20284;-50
2022/07/11 06:26:03;;;;;;;2.40;2.30;;;;;;;;;;5044840;28;20504;-50
2022/07/11 06:28:29;;;;;;;2.07;1.97;;;;;;;;;;5040009;28;20818;-50
2022/07/11 06:30:55;;;;;;;2.20;2.10;;;;;;;;;;5035509;28;20177;-52
2022/07/11 06:33:22;;;;;;;2.60;2.10;;;;;;;;;;5048995;28;20164;-49
2022/07/11 06:35:49;;;;;;;2.10;2.00;;;;;;;;;;5047217;28;20188;-51
2022/07/11 06:38:16;;;;;;;3.80;3.50;;;;;;;;;;5008896;28;20239;-55
2022/07/11 06:40:43;;;;;;;3.07;2.77;;;;;;;;;;5045551;28;20686;-51
2022/07/11 06:43:12;;;;;;;3.07;2.87;;;;;;;;;;5037131;28;20236;-51
2022/07/11 06:45:39;;;;;;;3.20;2.93;;;;;;;;;;5057387;28;20191;-49
2022/07/11 06:48:06;;;;;;;3.03;2.83;;;;;;;;;;5038877;28;20203;-50
2022/07/11 06:50:33;;;;;;;3.07;2.87;;;;;;;;;;5065682;28;20254;-51
2022/07/11 06:52:59;;;;;;;3.10;2.80;;;;;;;;;;5049675;28;20524;-49
2022/07/11 06:55:26;;;;;;;2.77;2.57;;;;;;;;;;5032777;28;20272;-51
2022/07/11 06:57:52;;;;;;;3.60;2.90;;;;;;;;;;5043416;28;20263;-50
2022/07/11 07:00:19;;;;;;;2.93;2.70;;;;;;;;;;5034064;28;20176;-50
2022/07/11 07:02:45;;;;;;;4.13;3.83;;;;;;;;;;5048176;28;20264;-50
2022/07/11 07:05:12;;;;;;;3.77;3.47;;;;;;;;;;5047124;28;20164;-51
2022/07/11 07:07:38;;;;;;;3.70;3.30;;;;;;;;;;5041368;28;20196;-51
2022/07/11 07:10:05;;;;;;;4.37;3.63;;;;;;;;;;5031582;28;20185;-51
2022/07/11 07:12:31;;;;;;;3.40;3.10;;;;;;;;;;5046852;28;20486;-52
2022/07/11 07:15:00;;;;;;;4.10;3.37;;;;;;;;;;5035874;28;20243;-49
2022/07/11 07:17:26;;;;;;;3.17;2.90;;;;;;;;;;5028568;28;20200;-50
2022/07/11 07:19:52;;;;;;;3.43;3.13;;;;;;;;;;5058892;28;20212;-50
2022/07/11 07:22:19;;;;;;;3.60;3.30;;;;;;;;;;5062724;28;20226;-51
2022/07/11 07:24:46;;;;;;;4.23;3.23;;;;;;;;;;5066395;28;20165;-52
2022/07/11 07:27:12;;;;;;;3.60;3.30;;;;;;;;;;5040991;28;20205;-52
2022/07/11 07:29:39;;;;;;;3.43;3.13;;;;;;;;;;5029854;28;20185;-51
2022/07/11 07:32:06;;;;;;;3.70;3.33;;;;;;;;;;5042367;28;20294;-52
2022/07/11 07:34:32;;;;;;;3.50;3.27;;;;;;;;;;5066914;28;20204;-51
2022/07/11 07:36:58;;;;;;;4.23;3.33;;;;;;;;;;5052277;28;20208;-51
2022/07/11 07:39:24;;;;;;;3.40;3.10;;;;;;;;;;5052257;28;20643;-49
2022/07/11 07:41:50;;;;;;;3.40;3.10;;;;;;;;;;5046838;28;20548;-50
2022/07/11 07:44:16;;;;;;;3.43;3.13;;;;;;;;;;5042406;28;20195;-50
2022/07/11 07:46:42;;;;;;;3.63;3.33;;;;;;;;;;5062150;28;20215;-50
2022/07/11 07:49:09;;;;;;;4.47;3.10;;;;;;;;;;5052558;28;20177;-51
2022/07/11 07:51:35;;;;;;;86.03;13.60;;;;;;;;;;5057991;28;20275;-51
2022/07/11 07:54:01;;;;;;;17.07;4.20;;;;;;;;;;5065400;28;20211;-52
2022/07/11 07:56:28;;;;;;;5.57;3.40;;;;;;;;;;5049931;28;20267;-52
2022/07/11 07:58:54;;;;;;;7.53;3.47;;;;;;;;;;5056516;28;20216;-51
2022/07/11 08:01:36;;;;;;;6.77;3.73;;;;;;;;;;5045617;28;20416;-52
2022/07/11 08:04:09;;;;;;;4.17;3.70;;;;;;;;;;5038516;28;20211;-53
2022/07/11 08:06:35;;;;;;;4.20;3.80;;;;;;;;;;5041704;28;20307;-54
2022/07/11 08:09:02;;;;;;;4.50;4.10;;;;;;;;;;5060360;28;20180;-52
2022/07/11 08:11:30;;;;;;;8.03;4.30;;;;;;;;;;5059200;28;20184;-53
2022/07/11 08:13:57;;;;;;;5.50;3.90;;;;;;;;;;5043472;28;20771;-52
2022/07/11 08:16:23;;;;;;;4.23;3.93;;;;;;;;;;5063109;28;20228;-56
2022/07/11 08:18:49;;;;;;;4.70;4.30;;;;;;;;;;5049452;28;20658;-52
2022/07/11 08:21:15;;;;;;;6.43;5.60;;;;;;;;;;5064819;28;20187;-53
2022/07/11 08:23:45;;;;;;;9.43;5.33;;;;;;;;;;5058252;28;20181;-52
2022/07/11 08:26:12;;;;;;;6.70;6.13;;;;;;;;;;5035517;28;20180;-52
2022/07/11 08:28:38;;;;;;;7.03;5.30;;;;;;;;;;5058212;28;20299;-55
2022/07/11 08:31:05;;;;;;;10.30;6.03;;;;;;;;;;5038370;28;20265;-53
2022/07/11 08:33:31;;;;;;;7.87;7.17;;;;;;;;;;5049743;28;20191;-53
2022/07/11 08:35:57;;;;;;;8.50;7.63;;;;;;;;;;5066061;28;20278;-53
2022/07/11 08:38:23;;;;;;;7.57;6.77;;;;;;;;;;5058372;28;20231;-51
2022/07/11 08:40:50;;;;;;;8.07;7.30;;;;;;;;;;5060220;28;20255;-52
2022/07/11 08:43:17;;;;;;;9.03;7.50;;;;;;;;;;5029824;27;20291;-53
2022/07/11 08:45:44;;;;;;;12.50;11.20;;;;;;;;;;5020182;28;20185;-54
2022/07/11 08:48:11;;;;;;;9.53;8.63;;;;;;;;;;5033210;28;20293;-53
2022/07/11 08:50:38;;;;;;;9.40;8.60;;;;;;;;;;5043477;28;20658;-53
2022/07/11 08:53:05;;;;;;;8.97;8.07;;;;;;;;;;5029163;28;20193;-51
2022/07/11 08:55:31;;;;;;;8.87;7.10;;;;;;;;;;5044963;28;20533;-51
2022/07/11 08:57:58;;;;;;;8.27;7.57;;;;;;;;;;5043558;28;20276;-54
2022/07/11 09:00:25;;;;;;;8.83;7.10;;;;;;;;;;5022173;28;20232;-57
2022/07/11 09:02:52;;;;;;;6.43;5.83;;;;;;;;;;5043494;28;20181;-51
2022/07/11 09:05:18;;;;;;;6.73;6.23;;;;;;;;;;5033845;28;20180;-52
2022/07/11 09:07:46;;;;;;;6.67;6.00;;;;;;;;;;5042249;28;20286;-53
2022/07/11 09:10:12;;;;;;;5.63;5.13;;;;;;;;;;5028730;28;20168;-51
2022/07/11 09:12:59;;;;;;;6.93;6.27;;;;;;;;;;5045081;28;20209;-52
2022/07/11 09:15:32;;;;;;;7.00;6.30;;;;;;;;;;5033474;28;20482;-51
2022/07/11 09:17:58;;;;;;;6.93;5.67;;;;;;;;;;5029861;28;20588;-51
2022/07/11 09:20:24;;;;;;;7.13;6.47;;;;;;;;;;5035134;28;20181;-51
2022/07/11 09:25:55;;;;;;;7.53;6.83;;;;;;;;;;4953550;28;20681;-53
2022/07/11 09:28:24;;;;;;;7.77;6.20;;;;;;;;;;4991483;28;20225;-51
2022/07/11 09:30:50;;;;;;;6.10;5.60;;;;;;;;;;5024336;28;20207;-51
2022/07/11 09:33:17;;;;;;;5.73;4.90;;;;;;;;;;5016119;28;20393;-51
2022/07/11 09:35:46;;;;;;;5.07;4.67;;;;;;;;;;5020141;28;20280;-52
2022/07/11 09:38:13;;;;;;;6.60;6.00;;;;;;;;;;5011527;28;20188;-52
2022/07/11 09:40:42;;;;;;;5.90;5.30;;;;;;;;;;5009350;28;20622;-53
2022/07/11 09:43:09;;;;;;;5.87;5.17;;;;;;;;;;5025269;28;20224;-52
2022/07/11 09:45:36;;;;;;;6.13;5.33;;;;;;;;;;5038352;28;20195;-51
2022/07/11 09:48:10;;;;;;;6.03;5.27;;;;;;;;;;5039739;28;20296;-52
2022/07/11 09:50:37;;;;;;;5.07;4.67;;;;;;;;;;5038574;28;20203;-51
2022/07/11 09:53:07;;;;;;;6.00;5.47;;;;;;;;;;5059736;28;21631;-51
2022/07/11 09:55:46;;;;;;;6.60;5.40;;;;;;;;;;5036057;28;20195;-50
2022/07/11 09:58:17;;;;;;;7.60;5.10;;;;;;;;;;5034778;28;20617;-51
2022/07/11 10:00:44;;;;;;;5.20;4.80;;;;;;;;;;5057893;28;20553;-52
2022/07/11 10:03:11;;;;;;;4.90;4.50;;;;;;;;;;5046745;28;20180;-50
2022/07/11 10:05:38;;;;;;;4.67;4.27;;;;;;;;;;5060890;28;20177;-53
2022/07/11 10:08:05;;;;;;;4.20;3.90;;;;;;;;;;5054671;28;20887;-53
2022/07/11 10:10:32;;;;;;;4.50;4.10;;;;;;;;;;5034241;28;20817;-52
2022/07/11 10:12:59;;;;;;;7.93;3.83;;;;;;;;;;5051698;28;20182;-54
2022/07/11 10:15:30;;;;;;;4.40;3.97;;;;;;;;;;5035116;28;20184;-52
2022/07/11 10:18:04;;;;;;;5.77;4.00;;;;;;;;;;5039249;28;20188;-52
2022/07/11 10:20:43;;;;;;;3.50;3.20;;;;;;;;;;5034122;28;20239;-61
2022/07/11 10:23:15;;;;;;;3.57;3.27;;;;;;;;;;5034301;28;20184;-52
2022/07/11 10:25:43;;;;;;;4.10;3.73;;;;;;;;;;5058731;28;20662;-55
2022/07/11 10:28:16;;;;;;;4.93;4.40;;;;;;;;;;5062953;28;20556;-52
2022/07/11 10:30:47;;;;;;;5.50;5.10;;;;;;;;;;5042047;28;20320;-52
2022/07/11 10:33:14;;;;;;;5.20;4.80;;;;;;;;;;5065066;28;20188;-52
2022/07/11 10:35:41;;;;;;;6.47;5.13;;;;;;;;;;5057493;28;20263;-51
2022/07/11 10:38:07;;;;;;;4.90;4.60;;;;;;;;;;5057347;28;20302;-52
2022/07/11 10:40:52;;;;;;;5.13;4.27;;;;;;;;;;5053822;28;20247;-53
2022/07/11 10:43:20;;;;;;;5.20;4.70;;;;;;;;;;5036648;28;20662;-52
2022/07/11 10:45:58;;;;;;;4.70;4.40;;;;;;;;;;5038249;28;20277;-52
2022/07/11 10:48:24;;;;;;;4.90;4.50;;;;;;;;;;5033299;28;20231;-52
2022/07/11 10:50:55;;;;;;;4.53;3.90;;;;;;;;;;5038416;28;20612;-53
2022/07/11 10:53:22;;;;;;;5.47;4.50;;;;;;;;;;5025640;28;20451;-52
2022/07/11 10:56:02;;;;;;;4.87;4.47;;;;;;;;;;5040662;28;20620;-54
2022/07/11 10:58:32;;;;;;;5.33;4.87;;;;;;;;;;5039702;28;20261;-52
2022/07/11 11:01:11;;;;;;;5.53;5.03;;;;;;;;;;5041167;28;20561;-54
2022/07/11 11:03:38;;;;;;;5.47;5.07;;;;;;;;;;5040351;28;20213;-50
2022/07/11 11:06:04;;;;;;;4.60;4.20;;;;;;;;;;5042767;28;20715;-52
2022/07/11 11:08:33;;;;;;;4.70;4.30;;;;;;;;;;5026890;28;20266;-51
2022/07/11 11:11:00;;;;;;;4.70;4.30;;;;;;;;;;5041854;28;20183;-52
2022/07/11 11:13:26;;;;;;;4.87;4.23;;;;;;;;;;5044627;28;20196;-51
2022/07/11 11:15:56;;;;;;;4.60;3.50;;;;;;;;;;5031056;28;20194;-51
2022/07/11 11:20:58;;;;;;;3.90;3.60;;;;;;;;;;815621;22;20565;-83
2022/07/11 11:23:32;;;;;;;4.03;3.73;;;;;;;;;;5039885;28;20228;-83
2022/07/11 11:26:07;;;;;;;4.13;3.80;;;;;;;;;;5055348;28;20187;-82
2022/07/11 11:28:34;;;;;;;4.37;4.07;;;;;;;;;;5055883;28;20207;-83
2022/07/11 11:31:02;;;;;;;4.00;3.63;;;;;;;;;;5056131;28;20196;-83
2022/07/11 11:33:32;;;;;;;4.70;4.23;;;;;;;;;;5053835;28;20188;-82
2022/07/11 11:36:07;;;;;;;4.10;3.80;;;;;;;;;;5055179;28;20176;-83
2022/07/11 11:38:34;;;;;;;3.70;3.40;;;;;;;;;;5063225;28;20505;-83
2022/07/11 11:41:00;;;;;;;3.80;3.50;;;;;;;;;;5048321;28;20191;-84
2022/07/11 11:43:27;;;;;;;4.10;3.70;;;;;;;;;;5059400;28;20173;-83
2022/07/11 11:45:54;;;;;;;3.90;3.60;;;;;;;;;;5057719;28;20264;-84
2022/07/11 11:48:49;;;;;;;2.90;2.70;;;;;;;;;;5054838;28;20200;-84
2022/07/11 11:51:18;;;;;;;3.17;2.87;;;;;;;;;;5048843;28;20219;-83
2022/07/11 11:53:54;;;;;;;2.80;2.53;;;;;;;;;;5075742;28;20177;-83
2022/07/11 11:56:21;;;;;;;2.17;2.00;;;;;;;;;;5054610;28;20187;-83
2022/07/11 11:58:48;;;;;;;2.33;2.20;;;;;;;;;;5039611;28;20206;-84
2022/07/11 12:01:15;;;;;;;4.90;4.50;;;;;;;;;;5062728;28;20188;-84
2022/07/11 12:03:48;;;;;;;2.90;2.70;;;;;;;;;;5053836;28;20184;-85
2022/07/11 12:06:14;;;;;;;2.67;2.20;;;;;;;;;;5043999;28;20188;-84
2022/07/11 12:08:41;;;;;;;2.00;1.90;;;;;;;;;;5046608;28;20201;-85
2022/07/11 12:11:12;;;;;;;4.60;1.93;;;;;;;;;;5049656;28;20711;-85
2022/07/11 12:13:38;;;;;;;2.40;2.30;;;;;;;;;;5073023;28;20185;-85
2022/07/11 12:18:56;;;;;;;5.40;2.53;;;;;;;;;;5065623;28;20674;-84
2022/07/11 12:21:22;;;;;;;3.93;3.73;;;;;;;;;;5041815;28;20299;-85
2022/07/11 12:23:49;;;;;;;2.20;1.90;;;;;;;;;;5043533;28;20285;-85
2022/07/11 12:26:15;;;;;;;3.23;2.60;;;;;;;;;;5071070;28;20240;-85
2022/07/11 12:29:00;;;;;;;2.93;2.70;;;;;;;;;;5043304;28;20235;-85
2022/07/11 12:31:26;;;;;;;2.70;2.50;;;;;;;;;;5047181;28;20610;-85
2022/07/11 12:33:52;;;;;;;4.20;3.80;;;;;;;;;;5042586;28;20256;-85
2022/07/11 12:36:32;;;;;;;3.73;3.30;;;;;;;;;;5051095;28;20349;-84
2022/07/11 12:38:58;;;;;;;4.43;4.03;;;;;;;;;;5048171;28;20184;-84
2022/07/11 12:41:24;;;;;;;3.60;3.30;;;;;;;;;;5047497;28;20270;-84
2022/07/11 12:46:36;;;;;;;4.00;3.20;;;;;;;;;;5059020;28;20249;-85
2022/07/11 12:49:03;;;;;;;3.33;3.03;;;;;;;;;;5040049;28;20180;-85
2022/07/11 12:51:32;;;;;;;3.13;2.90;;;;;;;;;;5042138;28;20248;-85
2022/07/11 12:53:59;;;;;;;3.30;3.10;;;;;;;;;;5039649;28;20200;-85
2022/07/11 12:56:25;;;;;;;4.13;3.40;;;;;;;;;;5051056;28;20584;-85
2022/07/11 12:58:52;;;;;;;3.50;3.20;;;;;;;;;;5040816;28;20188;-85
2022/07/11 13:01:18;;;;;;;3.60;3.30;;;;;;;;;;5048791;28;20196;-85
2022/07/11 13:03:44;;;;;;;3.53;3.33;;;;;;;;;;5043383;28;20186;-84
2022/07/11 13:06:10;;;;;;;3.80;3.50;;;;;;;;;;5046506;28;20191;-84
2022/07/11 13:08:44;;;;;;;3.70;3.40;;;;;;;;;;5043912;28;20206;-85
2022/07/11 13:11:14;;;;;;;4.20;3.33;;;;;;;;;;5046135;28;20190;-85
2022/07/11 13:13:43;;;;;;;4.77;3.10;;;;;;;;;;5056356;28;20222;-85
2022/07/11 13:16:13;;;;;;;3.90;3.60;;;;;;;;;;5052860;28;20178;-85
2022/07/11 13:18:39;;;;;;;3.87;3.50;;;;;;;;;;5045231;28;20189;-85
2022/07/11 13:21:07;;;;;;;3.47;3.17;;;;;;;;;;5044716;28;20210;-85
2022/07/11 13:23:33;;;;;;;7.07;3.80;;;;;;;;;;5044404;28;20708;-84
2022/07/11 13:26:00;;;;;;;5.23;3.40;;;;;;;;;;5062810;28;20254;-85
2022/07/11 13:28:26;;;;;;;3.20;2.90;;;;;;;;;;5052197;28;20225;-84
2022/07/11 13:30:53;;;;;;;2.67;2.50;;;;;;;;;;5052630;28;20267;-85
2022/07/11 13:33:22;;;;;;;2.63;2.43;;;;;;;;;;5046756;28;20520;-84
2022/07/11 13:35:49;;;;;;;3.17;2.97;;;;;;;;;;5053220;28;20286;-84
2022/07/11 13:38:16;;;;;;;6.43;2.83;;;;;;;;;;5055216;28;20187;-84
2022/07/11 13:40:42;;;;;;;3.03;2.83;;;;;;;;;;5045827;28;20185;-85
2022/07/11 13:43:09;;;;;;;3.00;2.80;;;;;;;;;;5045110;28;20178;-85
2022/07/11 13:45:35;;;;;;;3.87;3.13;;;;;;;;;;5040590;28;20196;-84
2022/07/11 13:48:02;;;;;;;5.10;3.10;;;;;;;;;;5059606;28;20246;-85
2022/07/11 13:50:28;;;;;;;8.43;3.33;;;;;;;;;;5043746;28;20269;-84
2022/07/11 13:52:54;;;;;;;6.87;4.13;;;;;;;;;;5053998;28;20183;-84
2022/07/11 13:55:31;;;;;;;3.87;3.57;;;;;;;;;;5036664;28;20183;-85
2022/07/11 13:57:58;;;;;;;4.60;3.73;;;;;;;;;;5045227;28;20599;-84
2022/07/11 14:00:25;;;;;;;4.20;3.43;;;;;;;;;;5043963;28;20540;-84
2022/07/11 14:02:51;;;;;;;2.23;2.10;;;;;;;;;;5043106;28;20195;-83
2022/07/11 14:05:20;;;;;;;2.93;2.73;;;;;;;;;;5045130;28;20289;-84
2022/07/11 14:07:47;;;;;;;2.83;2.63;;;;;;;;;;5041192;28;20211;-84
2022/07/11 14:10:14;;;;;;;3.70;2.63;;;;;;;;;;5060621;28;20679;-84
2022/07/11 14:12:40;;;;;;;2.27;2.07;;;;;;;;;;5049832;28;20209;-84
2022/07/11 14:15:08;;;;;;;2.70;2.50;;;;;;;;;;5054079;28;20418;-83
2022/07/11 14:17:34;;;;;;;2.47;2.27;;;;;;;;;;5045927;28;20185;-84
2022/07/11 14:20:00;;;;;;;2.20;2.10;;;;;;;;;;5044394;28;20204;-84
2022/07/11 14:22:26;;;;;;;3.93;2.67;;;;;;;;;;5040110;28;20234;-84
2022/07/11 14:24:52;;;;;;;3.07;2.87;;;;;;;;;;5041683;28;20186;-84
2022/07/11 14:27:18;;;;;;;2.80;2.60;;;;;;;;;;5033791;28;20206;-84
2022/07/11 14:29:44;;;;;;;2.97;2.50;;;;;;;;;;5045351;28;20250;-84
2022/07/11 14:32:14;;;;;;;2.90;2.70;;;;;;;;;;5057964;28;20181;-84
2022/07/11 14:34:40;;;;;;;2.60;2.40;;;;;;;;;;5037796;28;20874;-84
2022/07/11 14:37:06;;;;;;;4.13;2.40;;;;;;;;;;5040707;28;20196;-84
2022/07/11 14:39:33;;;;;;;2.70;2.50;;;;;;;;;;5047006;28;20548;-84
2022/07/11 14:42:00;;;;;;;2.27;2.17;;;;;;;;;;5038939;28;20208;-84
2022/07/11 14:44:26;;;;;;;2.40;2.20;;;;;;;;;;5044652;28;20246;-83
2022/07/11 14:46:52;;;;;;;4.43;2.97;;;;;;;;;;5040465;28;20714;-84
2022/07/11 14:49:18;;;;;;;2.57;2.20;;;;;;;;;;5040052;28;20179;-84
2022/07/11 14:51:45;;;;;;;3.03;2.83;;;;;;;;;;5043848;28;20270;-84
2022/07/11 14:54:12;;;;;;;3.25;3.00;;;;;;;;;;5061854;28;20422;-84
2022/07/11 14:56:38;;;;;;;3.73;3.10;;;;;;;;;;5036231;28;20265;-86